Dunglen, Ohio
Current Conditions -  °F | °C
As of 7:29 PM on Wednesday 26 Nov 2014 (Local Time) from KHLG Reporting Station
Haze Haze  
Wind Chill:   Ceiling: 600
Heat Index:   Visibility: 1.7mi
Dew Point: -1°   Wind: 0mph
Humidity: 92%   Direction: NA
Pressure: 30.01"   Gusts: NA
Location:  40.2215°N, 80.8189°W
Report Text: KHLG 270029Z 00000KT 1 3/4SM BR OVC006 00/M01 A3001 RMK AO2 T00001011
Loading
Personal Weather Stations






























Interactive Weather Map New forecast layout! Learn more

10-Day Weather Forecast

Advertisements
Track Severe Weather on mobile